Time;durP1;ratioP1;P1;durP2;ratioP2;P2;SDS_P1;SDS_P2;PMS_P1;PMS_P2;Temp;Humidity;BMP_temperature;BMP_pressure;BME280_temperature;BME280_humidity;BME280_pressure;Samples;Min_cycle;Max_cycle;Signal;HPM_P1;HPM_P2
2023/01/21 00:00:04;;;;;;;;;;;2.10;99.90;2.90;99899.00;;;;343025;28;88884;-86
2023/01/21 00:00:16;;;;;;;;;;;2.10;99.90;2.90;99904.00;;;;342398;28;82394;-88
2023/01/21 00:00:28;;;;;;;;;;;2.10;99.90;2.90;99896.00;;;;341669;28;88401;-87
2023/01/21 00:00:40;;;;;;;;;;;2.10;99.90;2.90;99900.00;;;;343418;28;82578;-87
2023/01/21 00:00:56;;;;;;;;;;;2.10;99.90;2.90;99898.00;;;;344488;28;90178;-87
2023/01/21 00:01:07;;;;;;;;;;;2.20;99.90;2.90;99909.00;;;;343873;28;82447;-87
2023/01/21 00:01:20;;;;;;;;;;;2.20;99.90;2.80;99895.00;;;;343316;28;87998;-86
2023/01/21 00:01:32;;;;;;;;;;;2.20;99.90;2.80;99900.00;;;;343731;28;82527;-86
2023/01/21 00:01:43;;;;;;;;;;;2.20;99.90;2.90;99894.00;;;;340385;28;91558;-87
2023/01/21 00:01:55;;;;;;;;;;;2.20;99.90;2.90;99898.00;;;;342488;28;82376;-87
2023/01/21 00:02:07;;;;;;;;;;;2.20;99.90;2.90;99897.00;;;;342939;28;87022;-87
2023/01/21 00:02:19;;;;;;;;;;;2.20;99.90;2.90;99900.00;;;;343353;28;82575;-86
2023/01/21 00:02:30;;;;;;;;;;;2.20;99.90;2.90;99897.00;;;;344704;28;87987;-87
2023/01/21 00:02:42;;;;;;;;;;;2.20;99.90;2.90;99895.00;;;;341979;28;82569;-87
2023/01/21 00:02:54;;;;;;;;;;;2.20;99.90;2.90;99900.00;;;;341818;28;88701;-87
2023/01/21 00:03:06;;;;;;;;;;;2.20;99.90;2.90;99899.00;;;;342049;28;82630;-87
2023/01/21 00:03:18;;;;;;;;;;;2.20;99.90;2.90;99902.00;;;;341992;28;86648;-87
2023/01/21 00:03:29;;;;;;;;;;;2.20;99.90;2.90;99897.00;;;;342117;28;82507;-88
2023/01/21 00:03:41;;;;;;;;;;;2.20;99.90;2.90;99905.00;;;;341819;28;89501;-88
2023/01/21 00:03:53;;;;;;;;;;;2.20;99.90;3.00;99899.00;;;;343608;28;82426;-87
2023/01/21 00:04:05;;;;;;;;;;;2.20;99.90;2.90;99896.00;;;;341639;28;90669;-87
2023/01/21 00:04:18;;;;;;;;;;;2.20;99.90;2.70;99892.00;;;;342477;28;82419;-87
2023/01/21 00:04:33;;;;;;;;;;;2.20;99.90;2.70;99891.00;;;;343366;28;87986;-88
2023/01/21 00:04:45;;;;;;;;;;;2.20;99.90;2.80;99894.00;;;;342166;28;83411;-88
2023/01/21 00:04:57;;;;;;;;;;;2.10;99.90;2.80;99897.00;;;;341804;28;87699;-87
2023/01/21 00:05:09;;;;;;;;;;;2.10;99.90;2.80;99908.00;;;;343506;28;82439;-87
2023/01/21 00:05:21;;;;;;;;;;;2.10;99.90;2.90;99902.00;;;;342883;28;91915;-86
2023/01/21 00:05:33;;;;;;;;;;;2.20;99.90;2.80;99896.00;;;;340745;28;82333;-88
2023/01/21 00:05:44;;;;;;;;;;;2.10;99.90;2.80;99898.00;;;;342068;28;89100;-86
2023/01/21 00:05:59;;;;;;;;;;;2.10;99.90;2.90;99899.00;;;;343733;28;83347;-87
2023/01/21 00:06:13;;;;;;;;;;;2.10;99.90;2.90;99892.00;;;;340656;28;88108;-87
2023/01/21 00:06:25;;;;;;;;;;;2.10;99.90;2.80;99900.00;;;;343506;28;82507;-87
2023/01/21 00:06:37;;;;;;;;;;;2.10;99.90;2.80;99900.00;;;;343549;28;88883;-87
2023/01/21 00:06:49;;;;;;;;;;;2.10;99.90;2.70;99895.00;;;;344882;28;82521;-86
2023/01/21 00:07:00;;;;;;;;;;;2.10;99.90;2.70;99902.00;;;;344831;28;88328;-87
2023/01/21 00:07:12;;;;;;;;;;;2.10;99.90;2.70;99897.00;;;;343716;28;82380;-86
2023/01/21 00:07:24;;;;;;;;;;;2.10;99.90;2.80;99897.00;;;;344542;28;88558;-86
2023/01/21 00:07:36;;;;;;;;;;;2.10;99.90;2.80;99902.00;;;;342633;28;82447;-86
2023/01/21 00:07:48;;;;;;;;;;;2.10;99.90;2.90;99905.00;;;;342065;28;88759;-86
2023/01/21 00:08:00;;;;;;;;;;;2.10;99.90;2.80;99896.00;;;;345050;28;82432;-87
2023/01/21 00:08:13;;;;;;;;;;;2.10;99.90;2.80;99896.00;;;;343204;28;88623;-87
2023/01/21 00:08:25;;;;;;;;;;;2.10;99.90;2.90;99904.00;;;;343679;28;82455;-87
2023/01/21 00:08:37;;;;;;;;;;;2.10;99.90;2.90;99899.00;;;;345592;28;88312;-89
2023/01/21 00:08:49;;;;;;;;;;;2.10;99.90;2.90;99905.00;;;;344267;28;82643;-87
2023/01/21 00:09:01;;;;;;;;;;;2.10;99.90;3.00;99897.00;;;;344549;28;87353;-87
2023/01/21 00:09:13;;;;;;;;;;;2.10;99.90;3.00;99907.00;;;;342244;28;82619;-88
2023/01/21 00:09:25;;;;;;;;;;;2.20;99.90;2.90;99902.00;;;;343186;28;88142;-87
2023/01/21 00:09:37;;;;;;;;;;;2.20;99.90;2.80;99896.00;;;;343198;28;82577;-88
2023/01/21 00:09:49;;;;;;;;;;;2.20;99.90;2.90;99900.00;;;;345349;28;91443;-87
2023/01/21 00:10:01;;;;;;;;;;;2.20;99.90;2.90;99907.00;;;;346255;28;82569;-86
2023/01/21 00:10:12;;;;;;;;;;;2.20;99.90;2.90;99902.00;;;;344233;28;88345;-87
2023/01/21 00:10:25;;;;;;;;;;;2.20;99.90;2.80;99900.00;;;;344950;28;82421;-87
2023/01/21 00:10:37;;;;;;;;;;;2.20;99.90;2.70;99907.00;;;;343283;28;86956;-87
2023/01/21 00:10:48;;;;;;;;;;;2.20;99.90;2.80;99899.00;;;;344893;28;83568;-87
2023/01/21 00:11:06;;;;;;;;;;;2.20;99.90;2.80;99906.00;;;;341935;28;91125;-87
2023/01/21 00:11:18;;;;;;;;;;;2.20;99.90;2.80;99904.00;;;;343754;28;82514;-87
2023/01/21 00:11:30;;;;;;;;;;;2.20;99.90;2.70;99909.00;;;;342807;28;92047;-87
2023/01/21 00:11:42;;;;;;;;;;;2.20;99.90;2.80;99898.00;;;;342371;28;82324;-88
2023/01/21 00:11:54;;;;;;;;;;;2.20;99.90;2.80;99903.00;;;;341843;28;88970;-87
2023/01/21 00:12:05;;;;;;;;;;;2.20;99.90;2.80;99907.00;;;;344806;28;82610;-86
2023/01/21 00:12:17;;;;;;;;;;;2.20;99.90;2.80;99909.00;;;;343281;28;87943;-87
2023/01/21 00:12:29;;;;;;;;;;;2.20;99.90;2.90;99904.00;;;;345056;28;82493;-87
2023/01/21 00:12:40;;;;;;;;;;;2.20;99.90;2.80;99896.00;;;;345495;28;88332;-87
2023/01/21 00:12:52;;;;;;;;;;;2.20;99.90;2.80;99904.00;;;;344602;28;83219;-87
2023/01/21 00:13:04;;;;;;;;;;;2.20;99.90;2.80;99886.00;;;;342797;28;88415;-88
2023/01/21 00:13:16;;;;;;;;;;;2.20;99.90;2.80;99901.00;;;;343241;28;82539;-88
2023/01/21 00:13:27;;;;;;;;;;;2.20;99.90;2.70;99900.00;;;;344256;28;89676;-87
2023/01/21 00:13:39;;;;;;;;;;;2.10;99.90;2.70;99895.00;;;;344821;28;82567;-87
2023/01/21 00:13:51;;;;;;;;;;;2.10;99.90;2.80;99899.00;;;;342784;28;92142;-87
2023/01/21 00:14:03;;;;;;;;;;;2.10;99.90;2.80;99902.00;;;;342301;28;82508;-86
2023/01/21 00:14:15;;;;;;;;;;;2.10;99.90;2.80;99901.00;;;;341734;28;89754;-87
2023/01/21 00:14:28;;;;;;;;;;;2.10;99.90;2.70;99912.00;;;;342129;28;82584;-87
2023/01/21 00:14:40;;;;;;;;;;;2.10;99.90;2.60;99903.00;;;;342957;28;90835;-85
2023/01/21 00:14:51;;;;;;;;;;;2.10;99.90;2.60;99902.00;;;;342367;28;83484;-87
2023/01/21 00:15:03;;;;;;;;;;;2.10;99.90;2.70;99901.00;;;;341800;28;92127;-87
2023/01/21 00:15:15;;;;;;;;;;;2.10;99.90;2.60;99906.00;;;;344957;28;82505;-87
2023/01/21 00:15:27;;;;;;;;;;;2.10;99.90;2.70;99903.00;;;;340440;28;88895;-87
2023/01/21 00:15:39;;;;;;;;;;;2.10;99.90;2.70;99898.00;;;;342384;28;82436;-86
2023/01/21 00:15:52;;;;;;;;;;;2.10;99.90;2.80;99895.00;;;;343089;28;90516;-86
2023/01/21 00:16:05;;;;;;;;;;;2.10;99.90;2.80;99900.00;;;;342484;28;82554;-87
2023/01/21 00:16:17;;;;;;;;;;;2.10;99.90;2.80;99898.00;;;;341876;28;87882;-87
2023/01/21 00:16:28;;;;;;;;;;;2.10;99.90;2.80;99900.00;;;;343767;28;82585;-87
2023/01/21 00:16:40;;;;;;;;;;;2.10;99.90;2.80;99903.00;;;;342033;28;90475;-85
2023/01/21 00:16:52;;;;;;;;;;;2.10;99.90;2.80;99909.00;;;;343917;28;84791;-87
2023/01/21 00:17:04;;;;;;;;;;;2.10;99.90;2.90;99901.00;;;;342246;28;87927;-86
2023/01/21 00:17:15;;;;;;;;;;;2.10;99.90;2.90;99909.00;;;;342521;28;82344;-87
2023/01/21 00:17:32;;;;;;;;;;;2.10;99.90;2.90;99906.00;;;;341578;28;88196;-88
2023/01/21 00:17:44;;;;;;;;;;;2.10;99.90;2.80;99900.00;;;;344757;28;83468;-87
2023/01/21 00:17:56;;;;;;;;;;;2.10;99.90;2.80;99903.00;;;;344193;28;90408;-87
2023/01/21 00:18:08;;;;;;;;;;;2.10;99.90;2.80;99902.00;;;;343245;28;82518;-87
2023/01/21 00:18:19;;;;;;;;;;;2.10;99.90;2.80;99899.00;;;;343278;28;88412;-87
2023/01/21 00:18:32;;;;;;;;;;;2.10;99.90;2.90;99898.00;;;;345196;28;83329;-87
2023/01/21 00:18:46;;;;;;;;;;;2.10;99.90;2.80;99903.00;;;;343426;28;91841;-86
2023/01/21 00:18:58;;;;;;;;;;;2.10;99.90;2.80;99903.00;;;;343488;28;82612;-88
2023/01/21 00:19:10;;;;;;;;;;;2.20;99.90;2.80;99898.00;;;;343740;28;89405;-87
2023/01/21 00:19:21;;;;;;;;;;;2.10;99.90;2.70;99900.00;;;;342615;28;82455;-87
2023/01/21 00:19:33;;;;;;;;;;;2.10;99.90;2.60;99899.00;;;;340691;28;88290;-87
2023/01/21 00:19:45;;;;;;;;;;;2.10;99.90;2.70;99905.00;;;;344247;28;82415;-88
2023/01/21 00:19:57;;;;;;;;;;;2.10;99.90;2.70;99909.00;;;;342419;28;88650;-88
2023/01/21 00:20:09;;;;;;;;;;;2.10;99.90;2.70;99910.00;;;;342707;28;82515;-87
2023/01/21 00:20:21;;;;;;;;;;;2.10;99.90;2.80;99909.00;;;;342159;28;88736;-87
2023/01/21 00:20:33;;;;;;;;;;;2.10;99.90;2.70;99906.00;;;;342514;28;83446;-87
2023/01/21 00:20:45;;;;;;;;;;;2.10;99.90;2.70;99908.00;;;;342189;28;89168;-87
2023/01/21 00:20:57;;;;;;;;;;;2.10;99.90;2.80;99898.00;;;;339899;28;83253;-87
2023/01/21 00:21:08;;;;;;;;;;;2.10;99.90;2.80;99903.00;;;;340952;28;89378;-87
2023/01/21 00:21:20;;;;;;;;;;;2.10;99.90;2.80;99895.00;;;;341054;28;82378;-87
2023/01/21 00:21:32;;;;;;;;;;;2.10;99.90;2.80;99895.00;;;;339388;28;90998;-87
2023/01/21 00:21:44;;;;;;;;;;;2.00;99.90;2.80;99903.00;;;;340543;28;83545;-88
2023/01/21 00:21:56;;;;;;;;;;;2.10;99.90;2.80;99902.00;;;;339834;28;90451;-87
2023/01/21 00:22:08;;;;;;;;;;;2.10;99.90;2.80;99903.00;;;;341592;28;82568;-87
2023/01/21 00:22:19;;;;;;;;;;;2.10;99.90;2.70;99906.00;;;;341556;28;87962;-87
2023/01/21 00:22:32;;;;;;;;;;;2.00;99.90;2.60;99910.00;;;;341941;28;82541;-87
2023/01/21 00:22:43;;;;;;;;;;;2.00;99.90;2.60;99900.00;;;;340902;28;88384;-87
2023/01/21 00:22:55;;;;;;;;;;;2.00;99.90;2.70;99900.00;;;;340519;28;82408;-87
2023/01/21 00:23:09;;;;;;;;;;;2.00;99.90;2.60;99904.00;;;;341387;28;88374;-87
2023/01/21 00:23:21;;;;;;;;;;;2.00;99.90;2.60;99907.00;;;;341370;28;82588;-86
2023/01/21 00:23:33;;;;;;;;;;;2.00;99.90;2.60;99900.00;;;;342779;28;87938;-87
2023/01/21 00:23:45;;;;;;;;;;;2.00;99.90;2.60;99906.00;;;;343310;28;82309;-88
2023/01/21 00:23:56;;;;;;;;;;;2.00;99.90;2.70;99902.00;;;;341309;28;90583;-87
2023/01/21 00:24:09;;;;;;;;;;;2.00;99.90;2.70;99900.00;;;;343144;28;83410;-87
2023/01/21 00:24:24;;;;;;;;;;;2.00;99.90;2.70;99894.00;;;;341007;28;91336;-87
2023/01/21 00:24:35;;;;;;;;;;;2.00;99.90;2.70;99904.00;;;;344017;28;82465;-87
2023/01/21 00:24:47;;;;;;;;;;;2.00;99.90;2.70;99903.00;;;;342140;28;90363;-87
2023/01/21 00:24:59;;;;;;;;;;;2.00;99.90;2.70;99907.00;;;;342829;28;82473;-87
2023/01/21 00:25:11;;;;;;;;;;;2.00;99.90;2.70;99903.00;;;;343808;28;88434;-87
2023/01/21 00:25:23;;;;;;;;;;;2.00;99.90;2.70;99895.00;;;;341428;28;82175;-87
2023/01/21 00:25:34;;;;;;;;;;;2.00;99.90;2.60;99897.00;;;;342451;28;89449;-88
2023/01/21 00:25:46;;;;;;;;;;;2.00;99.90;2.50;99900.00;;;;341707;28;82364;-87
2023/01/21 00:25:59;;;;;;;;;;;2.00;99.90;2.60;99895.00;;;;342237;28;91984;-87
2023/01/21 00:26:11;;;;;;;;;;;2.00;99.90;2.60;99893.00;;;;344122;28;82323;-87
2023/01/21 00:26:23;;;;;;;;;;;2.00;99.90;2.70;99903.00;;;;343490;28;89400;-87
2023/01/21 00:26:35;;;;;;;;;;;2.00;99.90;2.70;99894.00;;;;342785;28;83418;-87
2023/01/21 00:26:46;;;;;;;;;;;2.00;99.90;2.70;99903.00;;;;342412;28;88604;-87
2023/01/21 00:26:58;;;;;;;;;;;2.00;99.90;2.70;99901.00;;;;342564;28;83547;-87
2023/01/21 00:27:10;;;;;;;;;;;2.00;99.90;2.80;99903.00;;;;342385;28;89417;-88
2023/01/21 00:27:22;;;;;;;;;;;2.00;99.90;2.80;99895.00;;;;342246;28;83906;-87
2023/01/21 00:27:33;;;;;;;;;;;2.00;99.90;2.80;99893.00;;;;343247;28;86833;-88
2023/01/21 00:27:45;;;;;;;;;;;2.00;99.90;2.90;99899.00;;;;343803;28;83362;-88
2023/01/21 00:27:58;;;;;;;;;;;2.00;99.90;2.90;99899.00;;;;340841;28;90288;-87
2023/01/21 00:28:10;;;;;;;;;;;2.00;99.90;2.90;99896.00;;;;341096;28;82508;-87
2023/01/21 00:28:22;;;;;;;;;;;2.00;99.90;2.80;99890.00;;;;340456;28;89133;-87
2023/01/21 00:28:34;;;;;;;;;;;2.00;99.90;2.70;99902.00;;;;343582;28;83544;-87
2023/01/21 00:28:46;;;;;;;;;;;2.00;99.90;2.70;99893.00;;;;342997;28;90922;-88
2023/01/21 00:28:58;;;;;;;;;;;2.00;99.90;2.80;99883.00;;;;342359;28;83407;-87
2023/01/21 00:29:10;;;;;;;;;;;2.00;99.90;2.80;99895.00;;;;343536;28;91952;-87
2023/01/21 00:29:22;;;;;;;;;;;2.10;99.90;2.80;99895.00;;;;343657;28;82343;-87
2023/01/21 00:29:33;;;;;;;;;;;2.00;99.90;2.70;99897.00;;;;343497;28;88254;-87
2023/01/21 00:29:45;;;;;;;;;;;2.10;99.90;2.80;99896.00;;;;343857;28;83295;-87
2023/01/21 00:29:57;;;;;;;;;;;2.00;99.90;2.80;99888.00;;;;343257;28;89988;-87
2023/01/21 00:30:10;;;;;;;;;;;2.10;99.90;2.80;99895.00;;;;344065;28;83435;-87
2023/01/21 00:30:21;;;;;;;;;;;2.10;99.90;2.80;99890.00;;;;343264;28;89447;-88
2023/01/21 00:30:34;;;;;;;;;;;2.10;99.90;2.80;99888.00;;;;339341;28;83462;-87
2023/01/21 00:30:46;;;;;;;;;;;2.10;99.90;2.80;99899.00;;;;342169;28;87832;-87
2023/01/21 00:30:59;;;;;;;;;;;2.10;99.90;2.80;99892.00;;;;343869;28;82459;-88
2023/01/21 00:31:11;;;;;;;;;;;2.10;99.90;2.70;99889.00;;;;341040;28;88479;-87
2023/01/21 00:31:23;;;;;;;;;;;2.10;99.90;2.70;99884.00;;;;341343;28;82515;-87
2023/01/21 00:31:35;;;;;;;;;;;2.10;99.90;2.70;99900.00;;;;339439;28;89667;-87
2023/01/21 00:31:47;;;;;;;;;;;2.10;99.90;2.60;99897.00;;;;339690;28;83449;-87
2023/01/21 00:31:59;;;;;;;;;;;2.10;99.90;2.70;99889.00;;;;339125;28;90508;-87
2023/01/21 00:32:11;;;;;;;;;;;2.10;99.90;2.60;99893.00;;;;340103;28;82472;-87
2023/01/21 00:32:22;;;;;;;;;;;2.10;99.90;2.60;99897.00;;;;339418;28;89714;-88
2023/01/21 00:32:34;;;;;;;;;;;2.00;99.90;2.70;99886.00;;;;340343;28;82565;-87
2023/01/21 00:32:46;;;;;;;;;;;2.10;99.90;2.70;99886.00;;;;339416;28;90313;-87
2023/01/21 00:32:58;;;;;;;;;;;2.00;99.90;2.70;99885.00;;;;339875;28;82446;-88
2023/01/21 00:33:10;;;;;;;;;;;2.10;99.90;2.70;99887.00;;;;341867;28;90967;-87
2023/01/21 00:33:21;;;;;;;;;;;2.00;99.90;2.70;99894.00;;;;339914;28;82410;-87
2023/01/21 00:33:33;;;;;;;;;;;2.00;99.90;2.80;99893.00;;;;341935;28;88353;-87
2023/01/21 00:33:47;;;;;;;;;;;2.10;99.90;2.70;99892.00;;;;341962;28;83964;-87
2023/01/21 00:33:58;;;;;;;;;;;2.00;99.90;2.80;99885.00;;;;339125;28;89931;-87
2023/01/21 00:34:10;;;;;;;;;;;2.00;99.90;2.70;99886.00;;;;339577;28;83307;-87
2023/01/21 00:34:22;;;;;;;;;;;2.10;99.90;2.70;99891.00;;;;339348;28;87802;-87
2023/01/21 00:34:34;;;;;;;;;;;2.10;99.90;2.70;99887.00;;;;339919;28;82546;-87
2023/01/21 00:34:46;;;;;;;;;;;2.00;99.90;2.70;99891.00;;;;337941;28;87379;-88
2023/01/21 00:34:57;;;;;;;;;;;2.00;99.90;2.70;99888.00;;;;341517;28;82218;-87
2023/01/21 00:35:09;;;;;;;;;;;2.00;99.90;2.70;99888.00;;;;340820;28;88602;-88
2023/01/21 00:35:21;;;;;;;;;;;2.00;99.90;2.60;99890.00;;;;341419;28;83483;-87
2023/01/21 00:35:33;;;;;;;;;;;2.00;99.90;2.60;99891.00;;;;341150;28;88036;-87
2023/01/21 00:35:45;;;;;;;;;;;2.00;99.90;2.50;99884.00;;;;341622;28;82476;-87
2023/01/21 00:36:00;;;;;;;;;;;2.00;99.90;2.60;99890.00;;;;339111;28;91314;-88
2023/01/21 00:36:12;;;;;;;;;;;2.00;99.90;2.50;99897.00;;;;341031;28;83828;-88
2023/01/21 00:36:28;;;;;;;;;;;2.00;99.90;2.50;99890.00;;;;341094;28;88522;-88
2023/01/21 00:36:40;;;;;;;;;;;2.00;99.90;2.50;99894.00;;;;343635;28;82744;-87
2023/01/21 00:36:52;;;;;;;;;;;2.00;99.90;2.50;99899.00;;;;340282;28;90713;-87
2023/01/21 00:37:07;;;;;;;;;;;2.00;99.90;2.60;99901.00;;;;340535;28;82462;-87
2023/01/21 00:37:18;;;;;;;;;;;2.00;99.90;2.60;99896.00;;;;340072;28;89842;-87
2023/01/21 00:37:30;;;;;;;;;;;2.00;99.90;2.60;99893.00;;;;341944;28;82635;-87
2023/01/21 00:37:42;;;;;;;;;;;2.00;99.90;2.60;99892.00;;;;340728;28;88543;-87
2023/01/21 00:37:54;;;;;;;;;;;2.00;99.90;2.70;99887.00;;;;339715;28;82438;-87
2023/01/21 00:38:06;;;;;;;;;;;2.00;99.90;2.60;99892.00;;;;339212;28;89276;-85
2023/01/21 00:38:17;;;;;;;;;;;2.00;99.90;2.60;99892.00;;;;341190;28;82174;-87
2023/01/21 00:38:29;;;;;;;;;;;2.00;99.90;2.50;99891.00;;;;340838;28;88386;-88
2023/01/21 00:38:41;;;;;;;;;;;2.00;99.90;2.40;99899.00;;;;341019;28;82315;-87
2023/01/21 00:38:53;;;;;;;;;;;2.00;99.90;2.50;99898.00;;;;340467;28;88444;-86
2023/01/21 00:39:05;;;;;;;;;;;2.00;99.90;2.50;99900.00;;;;341093;28;82398;-86
2023/01/21 00:39:17;;;;;;;;;;;2.00;99.90;2.40;99900.00;;;;343492;28;87585;-87
2023/01/21 00:39:29;;;;;;;;;;;2.00;99.90;2.40;99896.00;;;;342111;28;82573;-87
2023/01/21 00:39:41;;;;;;;;;;;2.00;99.90;2.40;99899.00;;;;341829;28;86862;-86
2023/01/21 00:39:53;;;;;;;;;;;1.90;99.90;2.40;99889.00;;;;341053;28;82523;-86
2023/01/21 00:40:05;;;;;;;;;;;1.90;99.90;2.40;99888.00;;;;340401;28;88722;-88
2023/01/21 00:40:17;;;;;;;;;;;2.00;99.90;2.40;99902.00;;;;341087;28;83321;-86
2023/01/21 00:40:29;;;;;;;;;;;1.90;99.90;2.40;99897.00;;;;340617;28;88631;-87
2023/01/21 00:40:41;;;;;;;;;;;1.90;99.90;2.40;99902.00;;;;342190;28;82459;-86
2023/01/21 00:41:01;;;;;;;;;;;1.90;99.90;2.50;99903.00;;;;340721;28;88647;-87
2023/01/21 00:41:13;;;;;;;;;;;1.90;99.90;2.40;99899.00;;;;342065;28;82394;-87
2023/01/21 00:41:25;;;;;;;;;;;1.90;99.90;2.30;99890.00;;;;340322;28;90720;-87
2023/01/21 00:41:37;;;;;;;;;;;1.90;99.90;2.40;99895.00;;;;340882;28;83270;-87
2023/01/21 00:41:49;;;;;;;;;;;1.90;99.90;2.40;99892.00;;;;339669;28;90752;-87
2023/01/21 00:42:03;;;;;;;;;;;1.90;99.90;2.50;99894.00;;;;340862;28;82403;-87
2023/01/21 00:42:15;;;;;;;;;;;1.90;99.90;2.40;99900.00;;;;339379;28;90441;-88
2023/01/21 00:42:27;;;;;;;;;;;1.90;99.90;2.40;99896.00;;;;339908;28;83224;-87
2023/01/21 00:42:39;;;;;;;;;;;1.90;99.90;2.40;99895.00;;;;339353;28;88450;-87
2023/01/21 00:42:51;;;;;;;;;;;1.90;99.90;2.50;99895.00;;;;338237;28;82399;-87
2023/01/21 00:43:02;;;;;;;;;;;1.90;99.90;2.50;99899.00;;;;340797;28;87732;-87
2023/01/21 00:43:14;;;;;;;;;;;1.90;99.90;2.50;99893.00;;;;342582;28;82323;-87
2023/01/21 00:43:26;;;;;;;;;;;1.90;99.90;2.60;99885.00;;;;339138;28;91321;-87
2023/01/21 00:43:39;;;;;;;;;;;1.90;99.90;2.60;99884.00;;;;339447;28;82312;-88
2023/01/21 00:43:51;;;;;;;;;;;1.90;99.90;2.70;99889.00;;;;339283;28;89845;-87
2023/01/21 00:44:04;;;;;;;;;;;1.90;99.90;2.70;99886.00;;;;339656;28;82495;-87
2023/01/21 00:44:16;;;;;;;;;;;1.90;99.90;2.70;99890.00;;;;339317;28;89184;-87
2023/01/21 00:44:28;;;;;;;;;;;1.90;99.90;2.70;99885.00;;;;340851;28;83261;-87
2023/01/21 00:44:40;;;;;;;;;;;1.90;99.90;2.70;99879.00;;;;340547;28;87692;-87
2023/01/21 00:44:52;;;;;;;;;;;2.00;99.90;2.70;99883.00;;;;340762;28;83447;-87
2023/01/21 00:45:04;;;;;;;;;;;2.00;99.90;2.80;99882.00;;;;341697;28;90746;-87
2023/01/21 00:45:16;;;;;;;;;;;2.00;99.90;2.80;99885.00;;;;342125;28;83455;-87
2023/01/21 00:45:28;;;;;;;;;;;2.00;99.90;2.70;99890.00;;;;341770;28;89078;-87
2023/01/21 00:45:40;;;;;;;;;;;2.00;99.90;2.70;99888.00;;;;339495;28;82428;-87
2023/01/21 00:45:51;;;;;;;;;;;2.00;99.90;2.70;99883.00;;;;339063;28;90705;-88
2023/01/21 00:46:04;;;;;;;;;;;2.00;99.90;2.70;99886.00;;;;339375;28;83398;-87
2023/01/21 00:46:16;;;;;;;;;;;2.00;99.90;2.70;99894.00;;;;340323;28;90471;-87
2023/01/21 00:46:27;;;;;;;;;;;2.00;99.90;2.60;99890.00;;;;340815;28;83371;-87
2023/01/21 00:46:39;;;;;;;;;;;2.00;99.90;2.60;99890.00;;;;339029;28;89424;-85
2023/01/21 00:46:51;;;;;;;;;;;2.00;99.90;2.60;99883.00;;;;342123;28;82502;-88
2023/01/21 00:47:03;;;;;;;;;;;2.00;99.90;2.50;99886.00;;;;338719;28;91033;-87
2023/01/21 00:47:15;;;;;;;;;;;2.00;99.90;2.50;99891.00;;;;339602;28;83362;-87
2023/01/21 00:47:27;;;;;;;;;;;2.00;99.90;2.70;99884.00;;;;340327;28;89298;-87
2023/01/21 00:47:39;;;;;;;;;;;2.00;99.90;2.80;99877.00;;;;340801;28;83301;-87
2023/01/21 00:47:51;;;;;;;;;;;2.00;99.90;2.80;99880.00;;;;339183;28;88032;-87
2023/01/21 00:48:03;;;;;;;;;;;2.00;99.90;2.70;99880.00;;;;342051;28;82545;-87
2023/01/21 00:48:15;;;;;;;;;;;2.00;99.90;2.60;99882.00;;;;340371;28;90280;-87
2023/01/21 00:48:27;;;;;;;;;;;2.00;99.90;2.60;99891.00;;;;340883;28;83444;-88
2023/01/21 00:48:39;;;;;;;;;;;2.10;99.90;2.60;99884.00;;;;341295;28;88457;-87
2023/01/21 00:48:51;;;;;;;;;;;2.00;99.90;2.50;99880.00;;;;343442;28;82569;-87
2023/01/21 00:49:03;;;;;;;;;;;2.00;99.90;2.60;99878.00;;;;341784;28;88932;-87
2023/01/21 00:49:14;;;;;;;;;;;2.00;99.90;2.70;99886.00;;;;342190;28;83385;-87
2023/01/21 00:49:26;;;;;;;;;;;2.00;99.90;2.70;99891.00;;;;341707;28;89462;-87
2023/01/21 00:49:38;;;;;;;;;;;2.00;99.90;2.80;99879.00;;;;340755;28;83620;-88
2023/01/21 00:49:50;;;;;;;;;;;2.00;99.90;2.60;99891.00;;;;339444;28;89113;-87
2023/01/21 00:50:02;;;;;;;;;;;2.00;99.90;2.50;99886.00;;;;340696;28;83788;-87
2023/01/21 00:50:14;;;;;;;;;;;2.00;99.90;2.50;99882.00;;;;341943;28;89853;-87
2023/01/21 00:50:26;;;;;;;;;;;2.00;99.90;2.60;99890.00;;;;341062;28;82519;-87
2023/01/21 00:50:38;;;;;;;;;;;2.00;99.90;2.50;99884.00;;;;339299;28;89106;-87
2023/01/21 00:50:50;;;;;;;;;;;2.00;99.90;2.50;99882.00;;;;342453;28;83239;-87
2023/01/21 00:51:02;;;;;;;;;;;2.00;99.90;2.60;99882.00;;;;341949;28;89851;-87
2023/01/21 00:51:14;;;;;;;;;;;2.00;99.90;2.50;99877.00;;;;343544;28;82380;-87
2023/01/21 00:51:26;;;;;;;;;;;2.00;99.90;2.50;99879.00;;;;341932;28;88895;-87
2023/01/21 00:51:38;;;;;;;;;;;2.00;99.90;2.50;99889.00;;;;339804;28;83473;-87
2023/01/21 00:51:50;;;;;;;;;;;2.00;99.90;2.40;99884.00;;;;339236;28;91706;-87
2023/01/21 00:52:02;;;;;;;;;;;1.90;99.90;2.40;99889.00;;;;339504;28;82404;-87
2023/01/21 00:52:14;;;;;;;;;;;1.90;99.90;2.30;99880.00;;;;339149;28;90083;-87
2023/01/21 00:52:26;;;;;;;;;;;1.90;99.90;2.40;99886.00;;;;339462;28;83354;-87
2023/01/21 00:52:37;;;;;;;;;;;1.90;99.90;2.40;99883.00;;;;339048;28;88784;-87
2023/01/21 00:52:49;;;;;;;;;;;1.90;99.90;2.50;99893.00;;;;342008;28;82349;-87
2023/01/21 00:53:01;;;;;;;;;;;1.90;99.90;2.40;99877.00;;;;341468;28;90288;-87
2023/01/21 00:53:13;;;;;;;;;;;1.90;99.90;2.40;99883.00;;;;340720;28;83299;-87
2023/01/21 00:53:26;;;;;;;;;;;1.90;99.90;2.40;99884.00;;;;340285;28;89015;-88
2023/01/21 00:53:40;;;;;;;;;;;1.90;99.90;2.50;99886.00;;;;339464;28;83268;-87
2023/01/21 00:53:52;;;;;;;;;;;1.90;99.90;2.60;99889.00;;;;339059;28;89103;-87
2023/01/21 00:54:04;;;;;;;;;;;1.90;99.90;2.60;99882.00;;;;342178;28;82315;-87
2023/01/21 00:54:16;;;;;;;;;;;1.90;99.90;2.60;99877.00;;;;341686;28;90386;-87
2023/01/21 00:54:30;;;;;;;;;;;1.90;99.90;2.60;99889.00;;;;342208;28;83254;-87
2023/01/21 00:54:41;;;;;;;;;;;1.90;99.90;2.50;99882.00;;;;338991;28;89127;-87
2023/01/21 00:54:53;;;;;;;;;;;1.90;99.90;2.50;99883.00;;;;339416;28;83472;-87
2023/01/21 00:55:05;;;;;;;;;;;1.90;99.90;2.50;99882.00;;;;339052;28;88556;-87
2023/01/21 00:55:17;;;;;;;;;;;1.90;99.90;2.50;99889.00;;;;340662;28;82575;-87
2023/01/21 00:55:29;;;;;;;;;;;1.90;99.90;2.60;99876.00;;;;340195;28;88484;-86
2023/01/21 00:55:41;;;;;;;;;;;1.90;99.90;2.60;99885.00;;;;342127;28;83162;-87
2023/01/21 00:55:53;;;;;;;;;;;1.90;99.90;2.60;99881.00;;;;341693;28;88876;-88
2023/01/21 00:56:06;;;;;;;;;;;1.90;99.90;2.70;99877.00;;;;340633;28;83469;-87
2023/01/21 00:56:18;;;;;;;;;;;1.90;99.90;2.60;99878.00;;;;341703;28;90424;-87
2023/01/21 00:56:29;;;;;;;;;;;1.90;99.90;2.70;99878.00;;;;340816;28;83415;-87
2023/01/21 00:56:41;;;;;;;;;;;1.90;99.90;2.70;99878.00;;;;341484;28;90841;-87
2023/01/21 00:56:54;;;;;;;;;;;1.90;99.90;2.70;99881.00;;;;342156;28;83495;-87
2023/01/21 00:57:05;;;;;;;;;;;1.90;99.90;2.70;99876.00;;;;342883;28;91738;-87
2023/01/21 00:57:17;;;;;;;;;;;1.90;99.90;2.70;99884.00;;;;340842;28;83368;-87
2023/01/21 00:57:29;;;;;;;;;;;2.00;99.90;2.70;99879.00;;;;339151;28;88895;-87
2023/01/21 00:57:41;;;;;;;;;;;2.00;99.90;2.70;99883.00;;;;339530;28;82458;-87
2023/01/21 00:57:55;;;;;;;;;;;2.00;99.90;2.70;99882.00;;;;340339;28;89784;-87
2023/01/21 00:58:06;;;;;;;;;;;2.00;99.90;2.70;99875.00;;;;340766;28;83534;-87
2023/01/21 00:58:18;;;;;;;;;;;2.00;99.90;2.80;99877.00;;;;340122;28;91444;-87
2023/01/21 00:58:30;;;;;;;;;;;2.00;99.90;2.70;99876.00;;;;340892;28;83303;-86
2023/01/21 00:58:43;;;;;;;;;;;2.00;99.90;2.80;99883.00;;;;338849;28;89231;-86
2023/01/21 00:58:55;;;;;;;;;;;2.00;99.90;2.60;99883.00;;;;340583;28;82507;-87
2023/01/21 00:59:07;;;;;;;;;;;2.00;99.90;2.60;99881.00;;;;340226;28;88132;-88
2023/01/21 00:59:19;;;;;;;;;;;2.00;99.90;2.50;99891.00;;;;340841;28;83446;-87
2023/01/21 00:59:31;;;;;;;;;;;2.00;99.90;2.60;99877.00;;;;341478;28;91695;-87
2023/01/21 00:59:43;;;;;;;;;;;2.00;99.90;2.60;99880.00;;;;340504;28;83526;-87
2023/01/21 00:59:54;;;;;;;;;;;2.00;99.90;2.60;99875.00;;;;338980;28;90588;-87
2023/01/21 01:00:09;;;;;;;;;;;2.00;99.90;2.50;99881.00;;;;341830;28;83612;-87
2023/01/21 01:00:21;;;;;;;;;;;2.00;99.90;2.60;99882.00;;;;340073;28;90661;-87
2023/01/21 01:00:33;;;;;;;;;;;2.00;99.90;2.70;99877.00;;;;338282;28;82358;-87
2023/01/21 01:00:45;;;;;;;;;;;2.00;99.90;2.70;99879.00;;;;341416;28;91293;-87
2023/01/21 01:01:03;;;;;;;;;;;2.00;99.90;2.80;99872.00;;;;340661;28;83571;-87
2023/01/21 01:01:19;;;;;;;;;;;2.00;99.90;2.80;99881.00;;;;338970;28;90709;-87
2023/01/21 01:01:35;;;;;;;;;;;2.00;99.90;2.80;99871.00;;;;340972;28;83225;-87
2023/01/21 01:01:47;;;;;;;;;;;2.00;99.90;2.80;99877.00;;;;340445;28;88315;-87